createdAt,value
2023-06-19T00:00:51.235Z,6.90
2023-06-19T00:10:50.855Z,6.70
2023-06-19T00:20:50.886Z,6.90
2023-06-19T00:30:55.987Z,7.20
2023-06-19T00:40:55.657Z,7.50
2023-06-19T00:50:55.251Z,7.90
2023-06-19T01:01:04.309Z,7.40
2023-06-19T01:11:00.348Z,6.70
2023-06-19T01:21:00.024Z,7.80
2023-06-19T01:30:59.611Z,7.50
2023-06-19T01:40:59.444Z,7.80
2023-06-19T01:51:04.569Z,7.70
2023-06-19T02:01:04.193Z,7.70
2023-06-19T02:11:04.009Z,7.70
2023-06-19T02:21:03.721Z,8.30
2023-06-19T02:31:08.866Z,8.70
2023-06-19T02:41:08.673Z,8.60
2023-06-19T02:51:08.155Z,7.90
2023-06-19T03:01:07.911Z,8.40
2023-06-19T03:11:13.179Z,8.30
2023-06-19T03:21:12.794Z,8.50
2023-06-19T03:31:12.452Z,7.80
2023-06-19T03:41:12.267Z,8.10
2023-06-19T03:51:17.450Z,7.90
2023-06-19T04:01:16.872Z,8.30
2023-06-19T04:11:16.458Z,8.30
2023-06-19T04:21:16.140Z,6.80
2023-06-19T04:31:21.400Z,6.30
2023-06-19T04:41:21.079Z,6.40
2023-06-19T04:51:20.677Z,6.10
2023-06-19T05:01:25.189Z,6.20
2023-06-19T05:11:25.330Z,5.70
2023-06-19T05:21:25.020Z,5.80
2023-06-19T05:31:24.631Z,5.40
2023-06-19T05:41:27.645Z,5.50
2023-06-19T05:51:24.049Z,5.70
2023-06-19T06:01:29.259Z,5.40
2023-06-19T06:11:28.827Z,5.50
2023-06-19T06:21:28.523Z,5.30
2023-06-19T06:31:28.129Z,5.20
2023-06-19T06:41:33.282Z,4.70
2023-06-19T06:51:32.935Z,4.90
2023-06-19T07:01:32.597Z,4.50
2023-06-19T07:11:32.567Z,4.60
2023-06-19T07:21:31.923Z,4.00
2023-06-19T07:31:37.069Z,4.50
2023-06-19T07:41:36.844Z,4.40
2023-06-19T07:51:36.347Z,4.60
2023-06-19T08:01:35.959Z,4.50
2023-06-19T08:11:41.128Z,5.30
2023-06-19T08:21:40.770Z,4.90
2023-06-19T08:31:40.857Z,5.10
2023-06-19T08:41:39.985Z,5.30
2023-06-19T08:51:45.181Z,5.10
2023-06-19T09:01:44.943Z,6.10
2023-06-19T09:11:44.441Z,5.80
2023-06-19T09:21:44.038Z,6.30
2023-06-19T09:31:49.187Z,5.60
2023-06-19T09:41:48.838Z,5.70
2023-06-19T09:51:48.435Z,5.50
2023-06-19T10:01:49.695Z,6.20
2023-06-19T10:11:53.260Z,5.70
2023-06-19T10:21:52.860Z,6.30
2023-06-19T10:31:52.619Z,6.60
2023-06-19T10:41:52.292Z,7.10
2023-06-19T10:51:57.208Z,7.40
2023-06-19T11:01:56.871Z,7.30
2023-06-19T11:11:56.486Z,7.70
2023-06-19T11:22:01.779Z,7.00
2023-06-19T11:32:01.288Z,7.20
2023-06-19T11:42:01.148Z,7.10
2023-06-19T11:52:00.745Z,6.60
2023-06-19T12:02:05.967Z,7.00
2023-06-19T12:12:05.532Z,6.20
2023-06-19T12:22:10.172Z,6.90
2023-06-19T12:32:10.489Z,6.80
2023-06-19T12:42:09.963Z,6.60
2023-06-19T12:52:09.589Z,6.50
2023-06-19T13:02:15.693Z,6.10
2023-06-19T13:12:14.360Z,6.30
2023-06-19T13:22:14.004Z,5.60
2023-06-19T13:32:19.201Z,5.70
2023-06-19T13:42:18.822Z,5.50
2023-06-19T13:52:18.452Z,6.10
2023-06-19T14:02:23.802Z,5.90
2023-06-19T14:12:23.241Z,6.50
2023-06-19T14:32:28.088Z,6.20
2023-06-19T14:42:27.673Z,6.10
2023-06-19T14:52:32.844Z,6.00
2023-06-19T15:02:32.571Z,6.00
2023-06-19T15:12:32.169Z,6.40
2023-06-19T15:22:37.606Z,6.00
2023-06-19T15:32:36.888Z,6.20
2023-06-19T15:42:36.756Z,6.20
2023-06-19T15:52:41.927Z,6.30
2023-06-19T16:02:41.675Z,6.20
2023-06-19T16:12:46.826Z,6.00
2023-06-19T16:22:46.323Z,5.90
2023-06-19T16:32:46.343Z,6.20
2023-06-19T16:42:51.233Z,6.20
2023-06-19T16:52:50.926Z,6.20
2023-06-19T17:02:56.226Z,6.20
2023-06-19T17:12:55.757Z,6.10
2023-06-19T17:22:55.675Z,6.80
2023-06-19T17:33:00.862Z,5.90
2023-06-19T17:43:00.536Z,6.20
2023-06-19T17:53:05.616Z,6.20
2023-06-19T18:03:05.448Z,6.10
2023-06-19T18:13:10.614Z,6.10
2023-06-19T18:23:10.231Z,6.40
2023-06-19T18:33:09.950Z,6.40
2023-06-19T18:43:15.018Z,6.40
2023-06-19T18:53:14.643Z,6.20
2023-06-19T19:03:14.405Z,6.30
2023-06-19T19:13:19.596Z,6.50
2023-06-19T19:23:19.105Z,6.40
2023-06-19T19:33:19.074Z,6.50
2023-06-19T19:43:24.004Z,6.70
2023-06-19T19:53:23.836Z,6.70
2023-06-19T20:03:23.740Z,6.60
2023-06-19T20:13:28.883Z,6.50
2023-06-19T20:23:28.365Z,8.30
2023-06-19T20:33:28.129Z,7.30
2023-06-19T20:43:33.255Z,7.60
2023-06-19T20:53:32.890Z,7.00
2023-06-19T21:03:32.629Z,6.90
2023-06-19T21:13:37.922Z,6.60
2023-06-19T21:23:37.339Z,6.60
2023-06-19T21:33:36.996Z,6.30
2023-06-19T21:43:42.089Z,6.50
2023-06-19T21:53:41.896Z,6.30
2023-06-19T22:03:47.149Z,6.20
2023-06-19T22:13:46.490Z,6.40
2023-06-19T22:23:46.106Z,6.90
2023-06-19T22:33:45.706Z,6.30
2023-06-19T22:43:50.840Z,6.50
2023-06-19T22:53:50.437Z,6.10
2023-06-19T23:03:50.160Z,6.50
2023-06-19T23:13:50.059Z,6.30
2023-06-19T23:23:54.828Z,6.30
2023-06-19T23:33:54.491Z,6.50
2023-06-19T23:43:54.063Z,6.80
2023-06-19T23:53:54.224Z,6.40
